sensor_id;sensor_type;location;lat;lon;timestamp;pressure;altitude;pressure_sealevel;temperature;humidity
25510;BME280;13413;52.336;21.200;2023-11-19T00:01:05;101129.52;;;2.23;78.57
25510;BME280;13413;52.336;21.200;2023-11-19T00:09:18;101141.77;;;2.31;78.89
25510;BME280;13413;52.336;21.200;2023-11-19T00:13:16;101140.33;;;2.39;78.93
25510;BME280;13413;52.336;21.200;2023-11-19T00:17:13;101140.17;;;2.39;78.68
25510;BME280;13413;52.336;21.200;2023-11-19T00:21:11;101137.96;;;2.45;78.83
25510;BME280;13413;52.336;21.200;2023-11-19T00:25:10;101132.58;;;2.43;78.44
25510;BME280;13413;52.336;21.200;2023-11-19T00:29:07;101123.80;;;2.46;78.74
25510;BME280;13413;52.336;21.200;2023-11-19T00:33:06;101113.29;;;2.49;78.72
25510;BME280;13413;52.336;21.200;2023-11-19T00:37:04;101114.30;;;2.52;78.52
25510;BME280;13413;52.336;21.200;2023-11-19T00:41:01;101120.05;;;2.52;78.78
25510;BME280;13413;52.336;21.200;2023-11-19T00:44:59;101110.05;;;2.58;78.69
25510;BME280;13413;52.336;21.200;2023-11-19T00:48:57;101101.80;;;2.53;78.44
25510;BME280;13413;52.336;21.200;2023-11-19T00:52:55;101093.45;;;2.53;78.55
25510;BME280;13413;52.336;21.200;2023-11-19T00:56:52;101085.45;;;2.60;78.58
25510;BME280;13413;52.336;21.200;2023-11-19T01:00:51;101079.33;;;2.68;78.62
25510;BME280;13413;52.336;21.200;2023-11-19T01:04:49;101080.30;;;2.69;78.32
25510;BME280;13413;52.336;21.200;2023-11-19T01:08:49;101077.34;;;2.59;78.39
25510;BME280;13413;52.336;21.200;2023-11-19T01:12:46;101070.67;;;2.64;78.59
25510;BME280;13413;52.336;21.200;2023-11-19T01:16:43;101060.04;;;2.66;78.61
25510;BME280;13413;52.336;21.200;2023-11-19T01:20:41;101048.46;;;2.69;78.50
25510;BME280;13413;52.336;21.200;2023-11-19T01:24:39;101043.61;;;2.71;78.53
25510;BME280;13413;52.336;21.200;2023-11-19T01:28:37;101042.31;;;2.68;78.44
25510;BME280;13413;52.336;21.200;2023-11-19T01:32:35;101040.15;;;2.66;78.38
25510;BME280;13413;52.336;21.200;2023-11-19T01:36:32;101034.44;;;2.68;78.33
25510;BME280;13413;52.336;21.200;2023-11-19T01:40:30;101031.98;;;2.68;78.19
25510;BME280;13413;52.336;21.200;2023-11-19T01:44:36;101029.41;;;2.55;78.13
25510;BME280;13413;52.336;21.200;2023-11-19T01:48:06;101031.06;;;2.49;78.35
25510;BME280;13413;52.336;21.200;2023-11-19T01:52:04;101027.61;;;2.46;78.30
25510;BME280;13413;52.336;21.200;2023-11-19T01:56:03;101018.96;;;2.23;78.17
25510;BME280;13413;52.336;21.200;2023-11-19T02:00:01;101007.73;;;2.13;78.38
25510;BME280;13413;52.336;21.200;2023-11-19T02:04:00;101003.13;;;2.19;78.67
25510;BME280;13413;52.336;21.200;2023-11-19T02:07:58;100993.00;;;2.20;78.69
25510;BME280;13413;52.336;21.200;2023-11-19T02:15:56;100985.77;;;2.28;78.64
25510;BME280;13413;52.336;21.200;2023-11-19T02:19:54;100978.34;;;2.30;78.76
25510;BME280;13413;52.336;21.200;2023-11-19T02:23:52;100981.36;;;2.36;78.68
25510;BME280;13413;52.336;21.200;2023-11-19T02:32:11;100969.92;;;2.13;78.54
25510;BME280;13413;52.336;21.200;2023-11-19T02:36:10;100964.95;;;2.14;78.87
25510;BME280;13413;52.336;21.200;2023-11-19T02:40:09;100963.09;;;2.16;79.03
25510;BME280;13413;52.336;21.200;2023-11-19T02:44:08;100957.05;;;2.05;78.83
25510;BME280;13413;52.336;21.200;2023-11-19T02:48:07;100951.67;;;2.04;79.13
25510;BME280;13413;52.336;21.200;2023-11-19T02:52:18;100951.69;;;2.07;79.19
25510;BME280;13413;52.336;21.200;2023-11-19T02:56:15;100942.48;;;2.01;79.18
25510;BME280;13413;52.336;21.200;2023-11-19T03:00:14;100933.56;;;2.02;79.30
25510;BME280;13413;52.336;21.200;2023-11-19T03:04:12;100923.67;;;2.03;79.55
25510;BME280;13413;52.336;21.200;2023-11-19T03:08:10;100918.90;;;1.99;79.34
25510;BME280;13413;52.336;21.200;2023-11-19T03:12:10;100910.52;;;2.09;79.45
25510;BME280;13413;52.336;21.200;2023-11-19T03:20:19;100906.97;;;2.13;79.25
25510;BME280;13413;52.336;21.200;2023-11-19T03:24:17;100896.72;;;2.12;79.24
25510;BME280;13413;52.336;21.200;2023-11-19T03:28:15;100893.66;;;2.15;79.31
25510;BME280;13413;52.336;21.200;2023-11-19T03:32:26;100888.38;;;2.14;79.30
25510;BME280;13413;52.336;21.200;2023-11-19T03:36:24;100875.02;;;2.18;79.41
25510;BME280;13413;52.336;21.200;2023-11-19T03:40:21;100860.34;;;2.25;79.55
25510;BME280;13413;52.336;21.200;2023-11-19T03:44:19;100861.65;;;2.26;79.45
25510;BME280;13413;52.336;21.200;2023-11-19T03:48:17;100861.73;;;2.25;79.30
25510;BME280;13413;52.336;21.200;2023-11-19T03:56:12;100861.70;;;2.07;79.57
25510;BME280;13413;52.336;21.200;2023-11-19T04:00:11;100859.96;;;2.04;79.80
25510;BME280;13413;52.336;21.200;2023-11-19T04:04:08;100855.02;;;2.00;79.90
25510;BME280;13413;52.336;21.200;2023-11-19T04:08:07;100841.41;;;2.03;79.81
25510;BME280;13413;52.336;21.200;2023-11-19T04:12:05;100834.29;;;2.09;80.02
25510;BME280;13413;52.336;21.200;2023-11-19T04:16:04;100825.83;;;2.11;79.97
25510;BME280;13413;52.336;21.200;2023-11-19T04:20:01;100818.30;;;2.18;79.96
25510;BME280;13413;52.336;21.200;2023-11-19T04:23:59;100816.65;;;2.12;79.91
25510;BME280;13413;52.336;21.200;2023-11-19T04:27:57;100805.48;;;2.05;79.94
25510;BME280;13413;52.336;21.200;2023-11-19T04:31:55;100799.56;;;2.05;80.19
25510;BME280;13413;52.336;21.200;2023-11-19T04:35:52;100793.75;;;2.13;80.32
25510;BME280;13413;52.336;21.200;2023-11-19T04:39:50;100787.98;;;2.13;80.08
25510;BME280;13413;52.336;21.200;2023-11-19T04:43:48;100779.54;;;2.07;80.07
25510;BME280;13413;52.336;21.200;2023-11-19T04:47:45;100774.63;;;2.05;80.27
25510;BME280;13413;52.336;21.200;2023-11-19T04:51:45;100768.58;;;2.02;80.33
25510;BME280;13413;52.336;21.200;2023-11-19T04:55:43;100750.40;;;2.02;80.58
25510;BME280;13413;52.336;21.200;2023-11-19T04:59:40;100743.92;;;2.05;80.47
25510;BME280;13413;52.336;21.200;2023-11-19T05:03:38;100747.39;;;2.08;80.56
25510;BME280;13413;52.336;21.200;2023-11-19T05:07:36;100749.59;;;2.11;80.65
25510;BME280;13413;52.336;21.200;2023-11-19T05:11:34;100744.61;;;2.05;80.42
25510;BME280;13413;52.336;21.200;2023-11-19T05:15:31;100735.84;;;1.91;80.94
25510;BME280;13413;52.336;21.200;2023-11-19T05:19:31;100733.45;;;1.83;81.02
25510;BME280;13413;52.336;21.200;2023-11-19T05:23:29;100730.77;;;1.79;81.47
25510;BME280;13413;52.336;21.200;2023-11-19T05:27:27;100722.56;;;1.84;81.25
25510;BME280;13413;52.336;21.200;2023-11-19T05:31:24;100714.08;;;1.91;81.35
25510;BME280;13413;52.336;21.200;2023-11-19T05:35:22;100709.39;;;2.00;81.24
25510;BME280;13413;52.336;21.200;2023-11-19T05:39:20;100711.02;;;1.97;81.30
25510;BME280;13413;52.336;21.200;2023-11-19T05:43:18;100702.50;;;1.94;81.42
25510;BME280;13413;52.336;21.200;2023-11-19T05:47:15;100709.38;;;1.96;81.42
25510;BME280;13413;52.336;21.200;2023-11-19T05:51:13;100711.92;;;1.96;81.38
25510;BME280;13413;52.336;21.200;2023-11-19T05:55:11;100712.10;;;1.89;81.61
25510;BME280;13413;52.336;21.200;2023-11-19T05:59:09;100708.10;;;1.82;82.28
25510;BME280;13413;52.336;21.200;2023-11-19T06:03:07;100706.48;;;1.85;81.99
25510;BME280;13413;52.336;21.200;2023-11-19T06:07:05;100706.05;;;1.91;81.89
25510;BME280;13413;52.336;21.200;2023-11-19T06:11:03;100708.75;;;1.87;82.31
25510;BME280;13413;52.336;21.200;2023-11-19T06:15:01;100700.98;;;1.82;82.64
25510;BME280;13413;52.336;21.200;2023-11-19T06:18:58;100698.02;;;1.77;82.89
25510;BME280;13413;52.336;21.200;2023-11-19T06:22:58;100695.61;;;1.76;83.13
25510;BME280;13413;52.336;21.200;2023-11-19T06:26:56;100695.38;;;1.77;83.25
25510;BME280;13413;52.336;21.200;2023-11-19T06:30:53;100690.94;;;1.78;82.97
25510;BME280;13413;52.336;21.200;2023-11-19T06:34:51;100691.36;;;1.82;82.98
25510;BME280;13413;52.336;21.200;2023-11-19T06:38:48;100687.41;;;1.83;83.33
25510;BME280;13413;52.336;21.200;2023-11-19T06:42:49;100684.20;;;1.82;83.21
25510;BME280;13413;52.336;21.200;2023-11-19T06:46:47;100681.82;;;1.88;83.07
25510;BME280;13413;52.336;21.200;2023-11-19T06:49:35;100676.18;;;1.92;83.15
25510;BME280;13413;52.336;21.200;2023-11-19T06:52:22;100671.20;;;1.93;83.02
25510;BME280;13413;52.336;21.200;2023-11-19T06:55:10;100662.88;;;1.95;83.01
25510;BME280;13413;52.336;21.200;2023-11-19T06:57:59;100656.25;;;1.97;83.15
25510;BME280;13413;52.336;21.200;2023-11-19T07:00:46;100648.00;;;1.94;83.53
25510;BME280;13413;52.336;21.200;2023-11-19T07:03:36;100639.19;;;1.92;83.20
25510;BME280;13413;52.336;21.200;2023-11-19T07:06:23;100638.80;;;1.90;83.34
25510;BME280;13413;52.336;21.200;2023-11-19T07:09:10;100635.53;;;1.87;83.66
25510;BME280;13413;52.336;21.200;2023-11-19T07:11:58;100636.52;;;1.90;83.58
25510;BME280;13413;52.336;21.200;2023-11-19T07:14:45;100626.30;;;1.94;83.33
25510;BME280;13413;52.336;21.200;2023-11-19T07:17:33;100619.33;;;1.99;83.04
25510;BME280;13413;52.336;21.200;2023-11-19T07:20:20;100615.05;;;2.02;83.05
25510;BME280;13413;52.336;21.200;2023-11-19T07:23:07;100610.80;;;2.01;83.36
25510;BME280;13413;52.336;21.200;2023-11-19T07:25:55;100610.83;;;2.01;83.19
25510;BME280;13413;52.336;21.200;2023-11-19T07:28:42;100607.23;;;2.00;83.44
25510;BME280;13413;52.336;21.200;2023-11-19T07:31:30;100610.20;;;1.97;83.20
25510;BME280;13413;52.336;21.200;2023-11-19T07:34:17;100607.63;;;1.97;83.28
25510;BME280;13413;52.336;21.200;2023-11-19T07:37:04;100604.23;;;1.96;83.58
25510;BME280;13413;52.336;21.200;2023-11-19T07:39:52;100594.30;;;2.00;83.43
25510;BME280;13413;52.336;21.200;2023-11-19T07:42:39;100594.05;;;2.03;83.30
25510;BME280;13413;52.336;21.200;2023-11-19T07:45:26;100593.17;;;1.99;83.47
25510;BME280;13413;52.336;21.200;2023-11-19T07:48:13;100590.85;;;1.95;83.41
25510;BME280;13413;52.336;21.200;2023-11-19T07:51:00;100589.52;;;1.94;83.44
25510;BME280;13413;52.336;21.200;2023-11-19T07:53:48;100586.47;;;1.91;83.23
25510;BME280;13413;52.336;21.200;2023-11-19T07:56:36;100587.98;;;1.89;83.58
25510;BME280;13413;52.336;21.200;2023-11-19T07:59:23;100585.06;;;1.91;83.66
25510;BME280;13413;52.336;21.200;2023-11-19T08:02:10;100581.45;;;1.95;83.52
25510;BME280;13413;52.336;21.200;2023-11-19T08:04:58;100576.51;;;1.98;83.36
25510;BME280;13413;52.336;21.200;2023-11-19T08:07:47;100573.08;;;1.95;83.84
25510;BME280;13413;52.336;21.200;2023-11-19T08:10:34;100567.42;;;1.89;83.46
25510;BME280;13413;52.336;21.200;2023-11-19T08:13:22;100554.37;;;1.91;83.46
25510;BME280;13413;52.336;21.200;2023-11-19T08:16:10;100553.35;;;1.90;83.48
25510;BME280;13413;52.336;21.200;2023-11-19T08:18:58;100550.73;;;1.91;83.55
25510;BME280;13413;52.336;21.200;2023-11-19T08:21:45;100547.40;;;1.95;83.13
25510;BME280;13413;52.336;21.200;2023-11-19T08:24:32;100545.64;;;1.98;83.03
25510;BME280;13413;52.336;21.200;2023-11-19T08:27:20;100538.17;;;1.97;83.02
25510;BME280;13413;52.336;21.200;2023-11-19T08:30:09;100542.45;;;2.03;82.94
25510;BME280;13413;52.336;21.200;2023-11-19T08:32:56;100537.23;;;2.01;82.70
25510;BME280;13413;52.336;21.200;2023-11-19T08:35:43;100540.70;;;2.05;82.72
25510;BME280;13413;52.336;21.200;2023-11-19T08:38:30;100540.00;;;2.08;82.77
25510;BME280;13413;52.336;21.200;2023-11-19T08:41:17;100533.14;;;2.11;82.71
25510;BME280;13413;52.336;21.200;2023-11-19T08:44:07;100528.15;;;2.12;82.69
25510;BME280;13413;52.336;21.200;2023-11-19T08:46:55;100520.90;;;2.11;82.66
25510;BME280;13413;52.336;21.200;2023-11-19T08:49:42;100524.84;;;2.14;82.64
25510;BME280;13413;52.336;21.200;2023-11-19T08:52:29;100518.52;;;2.19;82.74
25510;BME280;13413;52.336;21.200;2023-11-19T08:55:16;100518.02;;;2.23;82.51
25510;BME280;13413;52.336;21.200;2023-11-19T08:58:02;100517.55;;;2.27;82.60
25510;BME280;13413;52.336;21.200;2023-11-19T09:11:35;100493.90;;;2.42;82.11
25510;BME280;13413;52.336;21.200;2023-11-19T09:14:23;100488.71;;;2.41;82.32
25510;BME280;13413;52.336;21.200;2023-11-19T09:17:11;100489.89;;;2.37;82.15
25510;BME280;13413;52.336;21.200;2023-11-19T09:19:58;100491.31;;;2.37;82.42
25510;BME280;13413;52.336;21.200;2023-11-19T09:22:46;100486.34;;;2.31;82.21
25510;BME280;13413;52.336;21.200;2023-11-19T09:25:33;100482.91;;;2.30;82.44
25510;BME280;13413;52.336;21.200;2023-11-19T09:28:21;100476.36;;;2.29;82.40
25510;BME280;13413;52.336;21.200;2023-11-19T09:31:15;100475.45;;;2.37;82.31
25510;BME280;13413;52.336;21.200;2023-11-19T09:34:02;100472.11;;;2.37;82.72
25510;BME280;13413;52.336;21.200;2023-11-19T09:36:50;100471.04;;;2.40;82.46
25510;BME280;13413;52.336;21.200;2023-11-19T09:39:37;100463.52;;;2.38;82.30
25510;BME280;13413;52.336;21.200;2023-11-19T09:42:26;100451.91;;;2.50;82.51
25510;BME280;13413;52.336;21.200;2023-11-19T09:45:15;100445.85;;;2.55;82.32
25510;BME280;13413;52.336;21.200;2023-11-19T09:48:04;100441.04;;;2.59;82.26
25510;BME280;13413;52.336;21.200;2023-11-19T09:50:52;100443.04;;;2.53;82.10
25510;BME280;13413;52.336;21.200;2023-11-19T09:53:39;100437.03;;;2.55;82.17
25510;BME280;13413;52.336;21.200;2023-11-19T09:56:28;100431.09;;;2.50;82.15
25510;BME280;13413;52.336;21.200;2023-11-19T09:59:16;100424.80;;;2.48;82.36
25510;BME280;13413;52.336;21.200;2023-11-19T10:02:04;100422.05;;;2.52;82.36
25510;BME280;13413;52.336;21.200;2023-11-19T10:04:52;100421.98;;;2.53;82.32
25510;BME280;13413;52.336;21.200;2023-11-19T10:07:39;100415.25;;;2.56;82.46
25510;BME280;13413;52.336;21.200;2023-11-19T10:10:27;100410.98;;;2.59;82.36
25510;BME280;13413;52.336;21.200;2023-11-19T10:13:14;100405.30;;;2.58;82.19
25510;BME280;13413;52.336;21.200;2023-11-19T10:16:06;100401.64;;;2.63;82.21
25510;BME280;13413;52.336;21.200;2023-11-19T10:18:54;100392.67;;;2.65;82.20
25510;BME280;13413;52.336;21.200;2023-11-19T10:21:43;100396.16;;;2.63;82.16
25510;BME280;13413;52.336;21.200;2023-11-19T10:24:34;100392.63;;;2.59;81.97
25510;BME280;13413;52.336;21.200;2023-11-19T10:27:25;100386.24;;;2.63;82.21
25510;BME280;13413;52.336;21.200;2023-11-19T10:30:14;100378.89;;;2.67;82.28
25510;BME280;13413;52.336;21.200;2023-11-19T10:33:06;100379.19;;;2.70;82.34
25510;BME280;13413;52.336;21.200;2023-11-19T10:35:55;100373.37;;;2.66;81.94
25510;BME280;13413;52.336;21.200;2023-11-19T10:38:53;100362.63;;;2.70;82.25
25510;BME280;13413;52.336;21.200;2023-11-19T10:41:40;100360.58;;;2.75;82.13
25510;BME280;13413;52.336;21.200;2023-11-19T10:44:34;100355.48;;;2.80;82.04
25510;BME280;13413;52.336;21.200;2023-11-19T10:47:23;100342.67;;;2.75;81.88
25510;BME280;13413;52.336;21.200;2023-11-19T10:50:12;100332.08;;;2.80;81.93
25510;BME280;13413;52.336;21.200;2023-11-19T10:53:00;100332.13;;;2.82;81.87
25510;BME280;13413;52.336;21.200;2023-11-19T10:55:48;100329.13;;;2.78;81.80
25510;BME280;13413;52.336;21.200;2023-11-19T10:58:37;100328.47;;;2.77;82.11
25510;BME280;13413;52.336;21.200;2023-11-19T11:01:26;100324.33;;;2.77;81.70
25510;BME280;13413;52.336;21.200;2023-11-19T11:04:15;100315.31;;;2.76;81.92
25510;BME280;13413;52.336;21.200;2023-11-19T11:07:07;100312.33;;;2.76;81.98
25510;BME280;13413;52.336;21.200;2023-11-19T11:09:55;100305.79;;;2.77;82.03
25510;BME280;13413;52.336;21.200;2023-11-19T11:12:42;100290.38;;;2.87;82.35
25510;BME280;13413;52.336;21.200;2023-11-19T11:15:34;100289.48;;;2.87;82.00
25510;BME280;13413;52.336;21.200;2023-11-19T11:18:22;100276.41;;;2.85;82.09
25510;BME280;13413;52.336;21.200;2023-11-19T11:21:12;100269.64;;;2.86;82.06
25510;BME280;13413;52.336;21.200;2023-11-19T11:24:13;100261.20;;;2.82;82.07
25510;BME280;13413;52.336;21.200;2023-11-19T11:31:56;100251.04;;;2.74;82.24
25510;BME280;13413;52.336;21.200;2023-11-19T11:35:01;100246.76;;;2.77;82.33
25510;BME280;13413;52.336;21.200;2023-11-19T11:37:55;100247.70;;;2.74;82.24
25510;BME280;13413;52.336;21.200;2023-11-19T11:41:16;100240.48;;;2.69;82.10
25510;BME280;13413;52.336;21.200;2023-11-19T11:44:04;100236.14;;;2.63;82.24
25510;BME280;13413;52.336;21.200;2023-11-19T11:46:57;100233.45;;;2.61;82.31
25510;BME280;13413;52.336;21.200;2023-11-19T11:49:45;100228.90;;;2.68;82.20
25510;BME280;13413;52.336;21.200;2023-11-19T11:52:33;100227.81;;;2.70;82.19
25510;BME280;13413;52.336;21.200;2023-11-19T11:55:20;100223.29;;;2.74;82.30
25510;BME280;13413;52.336;21.200;2023-11-19T11:58:11;100213.41;;;2.69;82.47
25510;BME280;13413;52.336;21.200;2023-11-19T12:00:59;100213.20;;;2.64;82.60
25510;BME280;13413;52.336;21.200;2023-11-19T12:03:48;100204.53;;;2.67;82.55
25510;BME280;13413;52.336;21.200;2023-11-19T12:06:37;100197.46;;;2.66;82.43
25510;BME280;13413;52.336;21.200;2023-11-19T12:09:24;100188.81;;;2.67;82.39
25510;BME280;13413;52.336;21.200;2023-11-19T12:12:28;100184.78;;;2.65;82.51
25510;BME280;13413;52.336;21.200;2023-11-19T12:15:15;100176.13;;;2.66;82.50
25510;BME280;13413;52.336;21.200;2023-11-19T12:18:03;100170.34;;;2.73;82.54
25510;BME280;13413;52.336;21.200;2023-11-19T12:20:51;100169.50;;;2.70;82.38
25510;BME280;13413;52.336;21.200;2023-11-19T12:23:46;100165.91;;;2.70;82.57
25510;BME280;13413;52.336;21.200;2023-11-19T12:26:35;100157.95;;;2.69;82.41
25510;BME280;13413;52.336;21.200;2023-11-19T12:29:23;100149.61;;;2.66;82.31
25510;BME280;13413;52.336;21.200;2023-11-19T12:32:10;100149.09;;;2.68;82.56
25510;BME280;13413;52.336;21.200;2023-11-19T12:34:57;100146.70;;;2.68;82.41
25510;BME280;13413;52.336;21.200;2023-11-19T12:40:35;100133.39;;;2.68;82.65
25510;BME280;13413;52.336;21.200;2023-11-19T12:43:26;100129.67;;;2.67;82.36
25510;BME280;13413;52.336;21.200;2023-11-19T12:46:20;100123.27;;;2.70;82.38
25510;BME280;13413;52.336;21.200;2023-11-19T12:49:08;100123.89;;;2.73;82.38
25510;BME280;13413;52.336;21.200;2023-11-19T12:51:58;100122.50;;;2.75;82.46
25510;BME280;13413;52.336;21.200;2023-11-19T12:54:45;100118.08;;;2.76;82.38
25510;BME280;13413;52.336;21.200;2023-11-19T12:57:41;100118.39;;;2.74;82.24
25510;BME280;13413;52.336;21.200;2023-11-19T13:00:29;100122.73;;;2.70;82.44
25510;BME280;13413;52.336;21.200;2023-11-19T13:03:30;100114.44;;;2.69;82.49
25510;BME280;13413;52.336;21.200;2023-11-19T13:06:18;100104.73;;;2.74;82.49
25510;BME280;13413;52.336;21.200;2023-11-19T13:09:05;100102.54;;;2.75;82.39
25510;BME280;13413;52.336;21.200;2023-11-19T13:14:42;100100.20;;;2.72;82.23
25510;BME280;13413;52.336;21.200;2023-11-19T13:17:29;100097.34;;;2.69;82.67
25510;BME280;13413;52.336;21.200;2023-11-19T13:20:17;100091.59;;;2.71;82.67
25510;BME280;13413;52.336;21.200;2023-11-19T13:23:05;100092.42;;;2.75;82.46
25510;BME280;13413;52.336;21.200;2023-11-19T13:25:52;100087.71;;;2.73;82.48
25510;BME280;13413;52.336;21.200;2023-11-19T13:28:40;100088.30;;;2.73;82.52
25510;BME280;13413;52.336;21.200;2023-11-19T13:31:28;100082.82;;;2.77;82.38
25510;BME280;13413;52.336;21.200;2023-11-19T13:34:15;100079.05;;;2.81;82.38
25510;BME280;13413;52.336;21.200;2023-11-19T13:37:03;100074.36;;;2.78;82.33
25510;BME280;13413;52.336;21.200;2023-11-19T13:39:50;100069.27;;;2.76;82.54
25510;BME280;13413;52.336;21.200;2023-11-19T13:42:37;100061.52;;;2.77;82.25
25510;BME280;13413;52.336;21.200;2023-11-19T13:45:23;100054.52;;;2.73;82.23
25510;BME280;13413;52.336;21.200;2023-11-19T13:53:38;100026.48;;;2.77;82.61
25510;BME280;13413;52.336;21.200;2023-11-19T13:56:25;100021.98;;;2.76;82.50
25510;BME280;13413;52.336;21.200;2023-11-19T13:59:13;100019.02;;;2.80;82.71
25510;BME280;13413;52.336;21.200;2023-11-19T14:04:48;100001.46;;;2.75;82.46
25510;BME280;13413;52.336;21.200;2023-11-19T14:07:35;99997.23;;;2.78;82.70
25510;BME280;13413;52.336;21.200;2023-11-19T14:10:22;99991.02;;;2.79;82.77
25510;BME280;13413;52.336;21.200;2023-11-19T14:13:10;99989.63;;;2.81;82.68
25510;BME280;13413;52.336;21.200;2023-11-19T14:15:58;99979.80;;;2.79;82.50
25510;BME280;13413;52.336;21.200;2023-11-19T14:18:45;99980.00;;;2.79;82.67
25510;BME280;13413;52.336;21.200;2023-11-19T14:21:32;99973.91;;;2.75;82.76
25510;BME280;13413;52.336;21.200;2023-11-19T14:24:20;99975.35;;;2.73;82.63
25510;BME280;13413;52.336;21.200;2023-11-19T14:27:07;99970.36;;;2.70;82.94
25510;BME280;13413;52.336;21.200;2023-11-19T14:29:54;99967.49;;;2.69;83.00
25510;BME280;13413;52.336;21.200;2023-11-19T14:32:42;99966.55;;;2.65;83.20
25510;BME280;13413;52.336;21.200;2023-11-19T14:35:30;99963.69;;;2.63;83.12
25510;BME280;13413;52.336;21.200;2023-11-19T14:38:17;99958.30;;;2.64;83.07
25510;BME280;13413;52.336;21.200;2023-11-19T14:41:05;99956.40;;;2.64;83.47
25510;BME280;13413;52.336;21.200;2023-11-19T14:43:53;99955.79;;;2.59;83.25
25510;BME280;13413;52.336;21.200;2023-11-19T14:46:40;99952.02;;;2.64;83.23
25510;BME280;13413;52.336;21.200;2023-11-19T14:49:27;99952.80;;;2.65;83.21
25510;BME280;13413;52.336;21.200;2023-11-19T14:52:15;99947.34;;;2.60;83.41
25510;BME280;13413;52.336;21.200;2023-11-19T14:55:02;99944.79;;;2.57;83.60
25510;BME280;13413;52.336;21.200;2023-11-19T14:57:49;99943.52;;;2.56;83.38
25510;BME280;13413;52.336;21.200;2023-11-19T15:00:37;99941.15;;;2.59;83.27
25510;BME280;13413;52.336;21.200;2023-11-19T15:03:25;99940.95;;;2.52;83.91
25510;BME280;13413;52.336;21.200;2023-11-19T15:06:15;99939.85;;;2.54;83.49
25510;BME280;13413;52.336;21.200;2023-11-19T15:09:02;99936.55;;;2.58;83.40
25510;BME280;13413;52.336;21.200;2023-11-19T15:11:50;99935.91;;;2.57;83.56
25510;BME280;13413;52.336;21.200;2023-11-19T15:14:37;99938.42;;;2.53;83.73
25510;BME280;13413;52.336;21.200;2023-11-19T15:17:25;99931.94;;;2.51;83.82
25510;BME280;13413;52.336;21.200;2023-11-19T15:20:14;99928.22;;;2.51;83.87
25510;BME280;13413;52.336;21.200;2023-11-19T15:23:21;99924.91;;;2.51;83.89
25510;BME280;13413;52.336;21.200;2023-11-19T15:26:08;99924.12;;;2.52;83.91
25510;BME280;13413;52.336;21.200;2023-11-19T15:28:56;99923.40;;;2.52;83.93
25510;BME280;13413;52.336;21.200;2023-11-19T15:31:45;99923.70;;;2.51;84.02
25510;BME280;13413;52.336;21.200;2023-11-19T15:34:35;99923.87;;;2.49;84.25
25510;BME280;13413;52.336;21.200;2023-11-19T15:37:22;99927.88;;;2.47;84.27
25510;BME280;13413;52.336;21.200;2023-11-19T15:40:10;99923.80;;;2.48;84.15
25510;BME280;13413;52.336;21.200;2023-11-19T15:42:59;99922.20;;;2.50;84.14
25510;BME280;13413;52.336;21.200;2023-11-19T15:45:46;99918.83;;;2.43;84.39
25510;BME280;13413;52.336;21.200;2023-11-19T15:48:34;99921.27;;;2.47;84.40
25510;BME280;13413;52.336;21.200;2023-11-19T15:54:07;99920.17;;;2.50;84.29
25510;BME280;13413;52.336;21.200;2023-11-19T15:56:55;99920.02;;;2.45;84.33
25510;BME280;13413;52.336;21.200;2023-11-19T15:59:43;99920.39;;;2.41;84.72
25510;BME280;13413;52.336;21.200;2023-11-19T16:02:31;99916.92;;;2.41;84.82
25510;BME280;13413;52.336;21.200;2023-11-19T16:05:17;99918.78;;;2.46;84.71
25510;BME280;13413;52.336;21.200;2023-11-19T16:17:00;99920.94;;;2.45;84.73
25510;BME280;13413;52.336;21.200;2023-11-19T16:19:48;99923.45;;;2.46;84.60
25510;BME280;13413;52.336;21.200;2023-11-19T16:22:36;99919.56;;;2.49;84.40
25510;BME280;13413;52.336;21.200;2023-11-19T16:25:23;99916.30;;;2.50;84.19
25510;BME280;13413;52.336;21.200;2023-11-19T16:28:11;99918.59;;;2.52;84.35
25510;BME280;13413;52.336;21.200;2023-11-19T16:30:59;99912.16;;;2.49;84.48
25510;BME280;13413;52.336;21.200;2023-11-19T16:33:46;99913.78;;;2.55;84.18
25510;BME280;13413;52.336;21.200;2023-11-19T16:36:34;99906.42;;;2.53;84.54
25510;BME280;13413;52.336;21.200;2023-11-19T16:39:21;99906.77;;;2.55;84.39
25510;BME280;13413;52.336;21.200;2023-11-19T16:42:09;99900.66;;;2.55;84.46
25510;BME280;13413;52.336;21.200;2023-11-19T16:44:56;99900.59;;;2.52;84.35
25510;BME280;13413;52.336;21.200;2023-11-19T16:47:44;99896.98;;;2.48;84.68
25510;BME280;13413;52.336;21.200;2023-11-19T16:50:31;99894.10;;;2.50;84.68
25510;BME280;13413;52.336;21.200;2023-11-19T16:53:19;99888.35;;;2.48;84.53
25510;BME280;13413;52.336;21.200;2023-11-19T16:56:08;99887.05;;;2.47;84.83
25510;BME280;13413;52.336;21.200;2023-11-19T16:58:56;99888.16;;;2.46;84.90
25510;BME280;13413;52.336;21.200;2023-11-19T17:01:44;99883.98;;;2.46;84.69
25510;BME280;13413;52.336;21.200;2023-11-19T17:04:32;99886.27;;;2.48;84.69
25510;BME280;13413;52.336;21.200;2023-11-19T17:10:11;99875.11;;;2.52;84.73
25510;BME280;13413;52.336;21.200;2023-11-19T17:12:58;99874.21;;;2.50;84.88
25510;BME280;13413;52.336;21.200;2023-11-19T17:15:46;99870.95;;;2.50;84.88
25510;BME280;13413;52.336;21.200;2023-11-19T17:18:34;99873.30;;;2.51;84.74
25510;BME280;13413;52.336;21.200;2023-11-19T17:21:22;99869.64;;;2.51;84.85
25510;BME280;13413;52.336;21.200;2023-11-19T17:24:11;99863.14;;;2.55;84.61
25510;BME280;13413;52.336;21.200;2023-11-19T17:26:59;99857.37;;;2.55;84.55
25510;BME280;13413;52.336;21.200;2023-11-19T17:29:47;99853.23;;;2.53;84.93
25510;BME280;13413;52.336;21.200;2023-11-19T17:32:34;99847.08;;;2.57;84.66
25510;BME280;13413;52.336;21.200;2023-11-19T17:35:22;99845.50;;;2.57;84.63
25510;BME280;13413;52.336;21.200;2023-11-19T17:38:09;99839.55;;;2.55;84.86
25510;BME280;13413;52.336;21.200;2023-11-19T17:40:57;99840.01;;;2.58;84.62